sensor_id;sensor_type;location;lat;lon;timestamp;P1;durP1;ratioP1;P2;durP2;ratioP2
29430;SDS011;16404;49.902;10.074;2023-03-04T00:02:12;19.70;;;8.77;;
29430;SDS011;16404;49.902;10.074;2023-03-04T00:04:57;19.35;;;8.65;;
29430;SDS011;16404;49.902;10.074;2023-03-04T00:07:41;20.08;;;10.00;;
29430;SDS011;16404;49.902;10.074;2023-03-04T00:10:26;23.73;;;9.25;;
29430;SDS011;16404;49.902;10.074;2023-03-04T00:13:11;22.58;;;9.50;;
29430;SDS011;16404;49.902;10.074;2023-03-04T00:15:55;24.42;;;8.93;;
29430;SDS011;16404;49.902;10.074;2023-03-04T00:18:40;23.45;;;10.00;;
29430;SDS011;16404;49.902;10.074;2023-03-04T00:21:25;22.02;;;10.10;;
29430;SDS011;16404;49.902;10.074;2023-03-04T00:24:09;24.48;;;9.93;;
29430;SDS011;16404;49.902;10.074;2023-03-04T00:26:54;25.52;;;10.35;;
29430;SDS011;16404;49.902;10.074;2023-03-04T00:29:39;25.35;;;10.65;;
29430;SDS011;16404;49.902;10.074;2023-03-04T00:32:24;25.33;;;9.90;;
29430;SDS011;16404;49.902;10.074;2023-03-04T00:35:08;24.98;;;10.23;;
29430;SDS011;16404;49.902;10.074;2023-03-04T00:37:53;26.02;;;10.90;;
29430;SDS011;16404;49.902;10.074;2023-03-04T00:40:37;24.00;;;9.73;;
29430;SDS011;16404;49.902;10.074;2023-03-04T00:43:22;26.73;;;10.55;;
29430;SDS011;16404;49.902;10.074;2023-03-04T00:46:07;24.35;;;9.77;;
29430;SDS011;16404;49.902;10.074;2023-03-04T00:48:51;23.55;;;10.05;;
29430;SDS011;16404;49.902;10.074;2023-03-04T00:51:36;22.67;;;10.15;;
29430;SDS011;16404;49.902;10.074;2023-03-04T00:54:21;23.38;;;10.45;;
29430;SDS011;16404;49.902;10.074;2023-03-04T00:59:50;21.60;;;9.90;;
29430;SDS011;16404;49.902;10.074;2023-03-04T01:02:34;25.80;;;10.23;;
29430;SDS011;16404;49.902;10.074;2023-03-04T01:05:19;25.38;;;9.77;;
29430;SDS011;16404;49.902;10.074;2023-03-04T01:10:49;23.50;;;10.33;;
29430;SDS011;16404;49.902;10.074;2023-03-04T01:13:33;25.02;;;10.63;;
29430;SDS011;16404;49.902;10.074;2023-03-04T01:16:18;23.05;;;9.88;;
29430;SDS011;16404;49.902;10.074;2023-03-04T01:19:02;28.85;;;10.85;;
29430;SDS011;16404;49.902;10.074;2023-03-04T01:21:47;29.23;;;11.93;;
29430;SDS011;16404;49.902;10.074;2023-03-04T01:24:32;25.85;;;10.75;;
29430;SDS011;16404;49.902;10.074;2023-03-04T01:27:17;24.77;;;10.55;;
29430;SDS011;16404;49.902;10.074;2023-03-04T01:30:02;31.45;;;11.75;;
29430;SDS011;16404;49.902;10.074;2023-03-04T01:32:47;25.77;;;10.77;;
29430;SDS011;16404;49.902;10.074;2023-03-04T01:35:33;26.23;;;11.27;;
29430;SDS011;16404;49.902;10.074;2023-03-04T01:38:18;25.08;;;10.98;;
29430;SDS011;16404;49.902;10.074;2023-03-04T01:41:03;28.15;;;12.13;;
29430;SDS011;16404;49.902;10.074;2023-03-04T01:43:48;31.08;;;12.30;;
29430;SDS011;16404;49.902;10.074;2023-03-04T01:46:33;27.92;;;11.00;;
29430;SDS011;16404;49.902;10.074;2023-03-04T01:49:18;28.38;;;11.82;;
29430;SDS011;16404;49.902;10.074;2023-03-04T01:52:02;30.30;;;12.13;;
29430;SDS011;16404;49.902;10.074;2023-03-04T01:54:47;34.83;;;12.50;;
29430;SDS011;16404;49.902;10.074;2023-03-04T01:57:33;33.72;;;12.80;;
29430;SDS011;16404;49.902;10.074;2023-03-04T02:03:14;32.25;;;12.73;;
29430;SDS011;16404;49.902;10.074;2023-03-04T02:06:02;30.98;;;12.18;;
29430;SDS011;16404;49.902;10.074;2023-03-04T02:08:46;33.15;;;14.15;;
29430;SDS011;16404;49.902;10.074;2023-03-04T02:11:31;33.80;;;14.05;;
29430;SDS011;16404;49.902;10.074;2023-03-04T02:14:17;29.77;;;12.68;;
29430;SDS011;16404;49.902;10.074;2023-03-04T02:17:02;37.58;;;14.70;;
29430;SDS011;16404;49.902;10.074;2023-03-04T02:22:38;36.55;;;13.85;;
29430;SDS011;16404;49.902;10.074;2023-03-04T02:25:32;34.90;;;13.95;;
29430;SDS011;16404;49.902;10.074;2023-03-04T02:28:47;31.20;;;13.30;;
29430;SDS011;16404;49.902;10.074;2023-03-04T02:31:34;37.50;;;14.73;;
29430;SDS011;16404;49.902;10.074;2023-03-04T02:34:21;27.98;;;13.13;;
29430;SDS011;16404;49.902;10.074;2023-03-04T02:37:10;35.83;;;14.77;;
29430;SDS011;16404;49.902;10.074;2023-03-04T02:39:55;32.38;;;14.30;;
29430;SDS011;16404;49.902;10.074;2023-03-04T02:42:41;31.30;;;13.95;;
29430;SDS011;16404;49.902;10.074;2023-03-04T02:45:33;34.42;;;13.43;;
29430;SDS011;16404;49.902;10.074;2023-03-04T02:48:27;31.45;;;13.75;;
29430;SDS011;16404;49.902;10.074;2023-03-04T02:51:11;31.75;;;13.93;;
29430;SDS011;16404;49.902;10.074;2023-03-04T02:53:56;35.45;;;14.25;;
29430;SDS011;16404;49.902;10.074;2023-03-04T02:56:44;34.45;;;15.43;;
29430;SDS011;16404;49.902;10.074;2023-03-04T02:59:31;34.13;;;14.57;;
29430;SDS011;16404;49.902;10.074;2023-03-04T03:02:15;30.15;;;14.18;;
29430;SDS011;16404;49.902;10.074;2023-03-04T03:05:00;32.53;;;14.35;;
29430;SDS011;16404;49.902;10.074;2023-03-04T03:10:30;32.80;;;14.67;;
29430;SDS011;16404;49.902;10.074;2023-03-04T03:13:14;32.42;;;14.13;;
29430;SDS011;16404;49.902;10.074;2023-03-04T03:15:59;31.58;;;14.13;;
29430;SDS011;16404;49.902;10.074;2023-03-04T03:18:44;27.45;;;13.35;;
29430;SDS011;16404;49.902;10.074;2023-03-04T03:21:28;32.05;;;14.23;;
29430;SDS011;16404;49.902;10.074;2023-03-04T03:24:13;29.70;;;14.10;;
29430;SDS011;16404;49.902;10.074;2023-03-04T03:26:57;33.00;;;14.77;;
29430;SDS011;16404;49.902;10.074;2023-03-04T03:29:43;26.85;;;13.10;;
29430;SDS011;16404;49.902;10.074;2023-03-04T03:32:27;28.50;;;13.05;;
29430;SDS011;16404;49.902;10.074;2023-03-04T03:35:12;29.67;;;13.95;;
29430;SDS011;16404;49.902;10.074;2023-03-04T03:37:57;27.60;;;13.70;;
29430;SDS011;16404;49.902;10.074;2023-03-04T03:40:42;28.45;;;13.38;;
29430;SDS011;16404;49.902;10.074;2023-03-04T03:43:27;29.52;;;14.07;;
29430;SDS011;16404;49.902;10.074;2023-03-04T03:46:11;31.88;;;14.23;;
29430;SDS011;16404;49.902;10.074;2023-03-04T03:48:56;30.67;;;14.20;;
29430;SDS011;16404;49.902;10.074;2023-03-04T03:51:40;29.45;;;14.10;;
29430;SDS011;16404;49.902;10.074;2023-03-04T03:54:25;32.17;;;15.43;;
29430;SDS011;16404;49.902;10.074;2023-03-04T03:57:09;35.90;;;15.80;;
29430;SDS011;16404;49.902;10.074;2023-03-04T03:59:54;37.22;;;15.77;;
29430;SDS011;16404;49.902;10.074;2023-03-04T04:02:39;31.77;;;15.48;;
29430;SDS011;16404;49.902;10.074;2023-03-04T04:05:23;33.67;;;15.77;;
29430;SDS011;16404;49.902;10.074;2023-03-04T04:08:12;31.55;;;15.77;;
29430;SDS011;16404;49.902;10.074;2023-03-04T04:10:57;34.55;;;15.70;;
29430;SDS011;16404;49.902;10.074;2023-03-04T04:13:42;33.95;;;15.68;;
29430;SDS011;16404;49.902;10.074;2023-03-04T04:16:27;33.97;;;15.93;;
29430;SDS011;16404;49.902;10.074;2023-03-04T04:19:17;40.67;;;16.92;;
29430;SDS011;16404;49.902;10.074;2023-03-04T04:22:02;35.85;;;16.52;;
29430;SDS011;16404;49.902;10.074;2023-03-04T04:24:47;42.00;;;18.38;;
29430;SDS011;16404;49.902;10.074;2023-03-04T04:27:31;39.58;;;17.85;;
29430;SDS011;16404;49.902;10.074;2023-03-04T04:30:16;36.30;;;16.23;;
29430;SDS011;16404;49.902;10.074;2023-03-04T04:33:01;39.03;;;18.35;;
29430;SDS011;16404;49.902;10.074;2023-03-04T04:35:47;40.67;;;18.73;;
29430;SDS011;16404;49.902;10.074;2023-03-04T04:38:31;38.92;;;17.60;;
29430;SDS011;16404;49.902;10.074;2023-03-04T04:41:20;42.67;;;17.50;;
29430;SDS011;16404;49.902;10.074;2023-03-04T04:44:07;40.50;;;17.90;;
29430;SDS011;16404;49.902;10.074;2023-03-04T04:46:52;43.42;;;18.50;;
29430;SDS011;16404;49.902;10.074;2023-03-04T04:49:37;41.60;;;17.95;;
29430;SDS011;16404;49.902;10.074;2023-03-04T04:52:22;38.28;;;18.13;;
29430;SDS011;16404;49.902;10.074;2023-03-04T04:55:06;37.38;;;16.88;;
29430;SDS011;16404;49.902;10.074;2023-03-04T04:57:51;37.70;;;17.65;;
29430;SDS011;16404;49.902;10.074;2023-03-04T05:00:36;40.30;;;17.67;;
29430;SDS011;16404;49.902;10.074;2023-03-04T05:03:21;37.85;;;17.13;;
29430;SDS011;16404;49.902;10.074;2023-03-04T05:06:06;34.38;;;17.35;;
29430;SDS011;16404;49.902;10.074;2023-03-04T05:08:52;40.08;;;17.17;;
29430;SDS011;16404;49.902;10.074;2023-03-04T05:11:37;31.48;;;16.50;;
29430;SDS011;16404;49.902;10.074;2023-03-04T05:14:21;35.25;;;17.40;;
29430;SDS011;16404;49.902;10.074;2023-03-04T05:17:06;34.72;;;16.23;;
29430;SDS011;16404;49.902;10.074;2023-03-04T05:19:50;35.10;;;17.05;;
29430;SDS011;16404;49.902;10.074;2023-03-04T05:22:35;36.58;;;17.95;;
29430;SDS011;16404;49.902;10.074;2023-03-04T05:25:20;32.75;;;16.55;;
29430;SDS011;16404;49.902;10.074;2023-03-04T05:28:04;35.10;;;16.75;;
29430;SDS011;16404;49.902;10.074;2023-03-04T05:30:50;37.55;;;17.42;;
29430;SDS011;16404;49.902;10.074;2023-03-04T05:33:34;32.55;;;17.23;;
29430;SDS011;16404;49.902;10.074;2023-03-04T05:36:19;32.97;;;16.00;;
29430;SDS011;16404;49.902;10.074;2023-03-04T05:39:04;38.17;;;17.52;;
29430;SDS011;16404;49.902;10.074;2023-03-04T05:41:48;31.10;;;16.98;;
29430;SDS011;16404;49.902;10.074;2023-03-04T05:44:33;35.92;;;16.45;;
29430;SDS011;16404;49.902;10.074;2023-03-04T05:47:17;30.38;;;16.65;;
29430;SDS011;16404;49.902;10.074;2023-03-04T05:50:02;33.55;;;16.92;;
29430;SDS011;16404;49.902;10.074;2023-03-04T05:52:47;33.38;;;16.45;;
29430;SDS011;16404;49.902;10.074;2023-03-04T05:55:32;30.42;;;15.57;;
29430;SDS011;16404;49.902;10.074;2023-03-04T05:58:17;37.55;;;17.23;;
29430;SDS011;16404;49.902;10.074;2023-03-04T06:03:46;35.42;;;15.57;;
29430;SDS011;16404;49.902;10.074;2023-03-04T06:06:32;31.95;;;16.02;;
29430;SDS011;16404;49.902;10.074;2023-03-04T06:09:16;30.83;;;15.95;;
29430;SDS011;16404;49.902;10.074;2023-03-04T06:12:03;32.22;;;16.73;;
29430;SDS011;16404;49.902;10.074;2023-03-04T06:14:48;28.48;;;15.57;;
29430;SDS011;16404;49.902;10.074;2023-03-04T06:17:32;32.90;;;16.40;;
29430;SDS011;16404;49.902;10.074;2023-03-04T06:20:17;27.30;;;16.30;;
29430;SDS011;16404;49.902;10.074;2023-03-04T06:23:02;30.33;;;16.55;;
29430;SDS011;16404;49.902;10.074;2023-03-04T06:25:50;34.78;;;16.88;;
29430;SDS011;16404;49.902;10.074;2023-03-04T06:28:36;37.42;;;16.70;;
29430;SDS011;16404;49.902;10.074;2023-03-04T06:31:20;31.42;;;16.52;;
29430;SDS011;16404;49.902;10.074;2023-03-04T06:34:05;27.83;;;15.15;;
29430;SDS011;16404;49.902;10.074;2023-03-04T06:36:49;32.30;;;16.95;;
29430;SDS011;16404;49.902;10.074;2023-03-04T06:39:34;30.08;;;16.27;;
29430;SDS011;16404;49.902;10.074;2023-03-04T06:42:19;35.22;;;17.60;;
29430;SDS011;16404;49.902;10.074;2023-03-04T06:45:04;28.65;;;15.85;;
29430;SDS011;16404;49.902;10.074;2023-03-04T06:47:48;27.63;;;16.30;;
29430;SDS011;16404;49.902;10.074;2023-03-04T06:50:33;27.85;;;16.50;;
29430;SDS011;16404;49.902;10.074;2023-03-04T06:53:18;33.40;;;17.23;;
29430;SDS011;16404;49.902;10.074;2023-03-04T06:56:02;27.60;;;16.25;;
29430;SDS011;16404;49.902;10.074;2023-03-04T06:58:48;28.27;;;15.75;;
29430;SDS011;16404;49.902;10.074;2023-03-04T07:01:32;28.48;;;16.95;;
29430;SDS011;16404;49.902;10.074;2023-03-04T07:04:17;34.50;;;17.70;;
29430;SDS011;16404;49.902;10.074;2023-03-04T07:07:02;26.88;;;15.70;;
29430;SDS011;16404;49.902;10.074;2023-03-04T07:09:46;27.92;;;15.23;;
29430;SDS011;16404;49.902;10.074;2023-03-04T07:12:31;31.42;;;15.90;;
29430;SDS011;16404;49.902;10.074;2023-03-04T07:15:16;29.67;;;16.20;;
29430;SDS011;16404;49.902;10.074;2023-03-04T07:18:00;27.42;;;15.55;;
29430;SDS011;16404;49.902;10.074;2023-03-04T07:20:45;27.38;;;15.52;;
29430;SDS011;16404;49.902;10.074;2023-03-04T07:23:29;29.42;;;15.73;;
29430;SDS011;16404;49.902;10.074;2023-03-04T07:26:14;31.65;;;16.88;;
29430;SDS011;16404;49.902;10.074;2023-03-04T07:28:59;27.75;;;15.75;;
29430;SDS011;16404;49.902;10.074;2023-03-04T07:34:28;26.73;;;14.32;;
29430;SDS011;16404;49.902;10.074;2023-03-04T07:37:13;25.02;;;15.32;;
29430;SDS011;16404;49.902;10.074;2023-03-04T07:39:58;26.00;;;15.25;;
29430;SDS011;16404;49.902;10.074;2023-03-04T07:42:42;26.00;;;14.20;;
29430;SDS011;16404;49.902;10.074;2023-03-04T07:45:32;27.38;;;14.68;;
29430;SDS011;16404;49.902;10.074;2023-03-04T07:48:16;24.15;;;14.15;;
29430;SDS011;16404;49.902;10.074;2023-03-04T07:51:05;24.38;;;13.80;;
29430;SDS011;16404;49.902;10.074;2023-03-04T07:53:58;25.02;;;14.75;;
29430;SDS011;16404;49.902;10.074;2023-03-04T07:56:43;27.33;;;14.63;;
29430;SDS011;16404;49.902;10.074;2023-03-04T07:59:28;21.35;;;13.95;;
29430;SDS011;16404;49.902;10.074;2023-03-04T08:02:13;27.40;;;14.40;;
29430;SDS011;16404;49.902;10.074;2023-03-04T08:04:58;23.63;;;13.40;;
29430;SDS011;16404;49.902;10.074;2023-03-04T08:07:43;25.02;;;14.35;;
29430;SDS011;16404;49.902;10.074;2023-03-04T08:10:27;25.38;;;13.95;;
29430;SDS011;16404;49.902;10.074;2023-03-04T08:13:12;25.25;;;14.18;;
29430;SDS011;16404;49.902;10.074;2023-03-04T08:15:56;26.77;;;14.68;;
29430;SDS011;16404;49.902;10.074;2023-03-04T08:18:45;25.42;;;14.35;;
29430;SDS011;16404;49.902;10.074;2023-03-04T08:21:31;28.90;;;13.95;;
29430;SDS011;16404;49.902;10.074;2023-03-04T08:24:16;30.65;;;13.63;;
29430;SDS011;16404;49.902;10.074;2023-03-04T08:27:01;27.77;;;13.55;;
29430;SDS011;16404;49.902;10.074;2023-03-04T08:32:30;24.45;;;13.23;;
29430;SDS011;16404;49.902;10.074;2023-03-04T08:35:15;29.85;;;13.45;;
29430;SDS011;16404;49.902;10.074;2023-03-04T08:38:00;26.40;;;13.40;;
29430;SDS011;16404;49.902;10.074;2023-03-04T08:40:45;26.27;;;13.73;;
29430;SDS011;16404;49.902;10.074;2023-03-04T08:43:34;26.15;;;12.93;;
29430;SDS011;16404;49.902;10.074;2023-03-04T08:46:20;26.45;;;12.85;;
29430;SDS011;16404;49.902;10.074;2023-03-04T08:49:04;27.75;;;12.63;;
29430;SDS011;16404;49.902;10.074;2023-03-04T08:51:50;30.73;;;12.65;;
29430;SDS011;16404;49.902;10.074;2023-03-04T08:54:34;22.08;;;13.52;;
29430;SDS011;16404;49.902;10.074;2023-03-04T08:57:19;22.50;;;12.07;;
29430;SDS011;16404;49.902;10.074;2023-03-04T09:00:04;28.83;;;13.38;;
29430;SDS011;16404;49.902;10.074;2023-03-04T09:02:49;23.23;;;12.93;;
29430;SDS011;16404;49.902;10.074;2023-03-04T09:05:33;20.13;;;12.25;;
29430;SDS011;16404;49.902;10.074;2023-03-04T09:11:03;20.75;;;11.23;;
29430;SDS011;16404;49.902;10.074;2023-03-04T09:13:47;27.98;;;11.60;;
29430;SDS011;16404;49.902;10.074;2023-03-04T09:16:33;23.77;;;11.82;;
29430;SDS011;16404;49.902;10.074;2023-03-04T09:19:18;24.58;;;11.95;;
29430;SDS011;16404;49.902;10.074;2023-03-04T09:22:03;27.20;;;12.13;;
29430;SDS011;16404;49.902;10.074;2023-03-04T09:24:47;25.23;;;11.48;;
29430;SDS011;16404;49.902;10.074;2023-03-04T09:27:32;23.02;;;11.07;;
29430;SDS011;16404;49.902;10.074;2023-03-04T09:30:17;25.50;;;11.27;;
29430;SDS011;16404;49.902;10.074;2023-03-04T09:35:47;23.58;;;10.57;;
29430;SDS011;16404;49.902;10.074;2023-03-04T09:38:32;24.33;;;11.10;;
29430;SDS011;16404;49.902;10.074;2023-03-04T09:41:19;23.83;;;10.93;;
29430;SDS011;16404;49.902;10.074;2023-03-04T09:47:06;20.17;;;10.27;;
29430;SDS011;16404;49.902;10.074;2023-03-04T09:49:57;20.42;;;10.25;;
29430;SDS011;16404;49.902;10.074;2023-03-04T09:52:51;22.30;;;10.55;;
29430;SDS011;16404;49.902;10.074;2023-03-04T09:55:40;28.40;;;10.73;;
29430;SDS011;16404;49.902;10.074;2023-03-04T10:01:33;19.67;;;10.45;;
29430;SDS011;16404;49.902;10.074;2023-03-04T10:07:20;24.98;;;9.73;;
29430;SDS011;16404;49.902;10.074;2023-03-04T10:10:09;30.88;;;10.00;;
29430;SDS011;16404;49.902;10.074;2023-03-04T10:12:59;20.88;;;8.75;;
29430;SDS011;16404;49.902;10.074;2023-03-04T10:15:47;22.02;;;9.02;;
29430;SDS011;16404;49.902;10.074;2023-03-04T10:18:42;26.05;;;8.20;;
29430;SDS011;16404;49.902;10.074;2023-03-04T10:21:35;24.45;;;10.73;;
29430;SDS011;16404;49.902;10.074;2023-03-04T10:24:28;29.02;;;10.23;;
29430;SDS011;16404;49.902;10.074;2023-03-04T10:27:16;19.45;;;8.88;;
29430;SDS011;16404;49.902;10.074;2023-03-04T10:30:02;25.60;;;8.02;;
29430;SDS011;16404;49.902;10.074;2023-03-04T10:32:47;19.92;;;8.73;;
29430;SDS011;16404;49.902;10.074;2023-03-04T10:35:32;23.17;;;8.20;;
29430;SDS011;16404;49.902;10.074;2023-03-04T10:38:19;26.67;;;9.82;;
29430;SDS011;16404;49.902;10.074;2023-03-04T10:41:12;34.05;;;13.13;;
29430;SDS011;16404;49.902;10.074;2023-03-04T10:46:52;22.92;;;8.15;;
29430;SDS011;16404;49.902;10.074;2023-03-04T10:49:49;22.13;;;8.15;;
29430;SDS011;16404;49.902;10.074;2023-03-04T10:52:54;25.42;;;7.80;;
29430;SDS011;16404;49.902;10.074;2023-03-04T10:55:43;25.33;;;8.27;;
29430;SDS011;16404;49.902;10.074;2023-03-04T10:58:28;20.88;;;7.82;;
29430;SDS011;16404;49.902;10.074;2023-03-04T11:01:13;24.30;;;7.63;;
29430;SDS011;16404;49.902;10.074;2023-03-04T11:04:00;23.30;;;8.07;;
29430;SDS011;16404;49.902;10.074;2023-03-04T11:06:44;23.23;;;7.43;;
29430;SDS011;16404;49.902;10.074;2023-03-04T11:09:30;14.88;;;6.82;;
29430;SDS011;16404;49.902;10.074;2023-03-04T11:12:16;24.52;;;7.28;;
29430;SDS011;16404;49.902;10.074;2023-03-04T11:15:11;20.63;;;6.90;;
29430;SDS011;16404;49.902;10.074;2023-03-04T11:18:09;21.73;;;7.38;;
29430;SDS011;16404;49.902;10.074;2023-03-04T11:20:56;22.23;;;7.30;;
29430;SDS011;16404;49.902;10.074;2023-03-04T11:23:49;22.10;;;7.45;;
29430;SDS011;16404;49.902;10.074;2023-03-04T11:26:47;21.35;;;7.40;;
29430;SDS011;16404;49.902;10.074;2023-03-04T11:32:42;20.83;;;7.75;;
29430;SDS011;16404;49.902;10.074;2023-03-04T11:35:48;33.03;;;12.45;;
29430;SDS011;16404;49.902;10.074;2023-03-04T11:38:45;28.38;;;10.27;;
29430;SDS011;16404;49.902;10.074;2023-03-04T11:44:18;19.38;;;7.75;;
29430;SDS011;16404;49.902;10.074;2023-03-04T11:47:09;20.73;;;9.23;;
29430;SDS011;16404;49.902;10.074;2023-03-04T11:50:07;24.17;;;6.57;;
29430;SDS011;16404;49.902;10.074;2023-03-04T11:53:17;18.60;;;6.95;;
29430;SDS011;16404;49.902;10.074;2023-03-04T12:02:26;24.50;;;9.50;;
29430;SDS011;16404;49.902;10.074;2023-03-04T12:05:23;22.33;;;8.55;;
29430;SDS011;16404;49.902;10.074;2023-03-04T12:08:20;28.90;;;8.95;;
29430;SDS011;16404;49.902;10.074;2023-03-04T12:14:33;19.45;;;7.57;;
29430;SDS011;16404;49.902;10.074;2023-03-04T12:20:43;24.27;;;7.72;;
29430;SDS011;16404;49.902;10.074;2023-03-04T12:33:01;27.55;;;8.13;;
29430;SDS011;16404;49.902;10.074;2023-03-04T12:36:01;21.20;;;7.40;;
29430;SDS011;16404;49.902;10.074;2023-03-04T12:44:46;23.17;;;7.82;;
29430;SDS011;16404;49.902;10.074;2023-03-04T12:51:13;22.67;;;6.97;;
29430;SDS011;16404;49.902;10.074;2023-03-04T12:54:22;20.08;;;7.45;;
29430;SDS011;16404;49.902;10.074;2023-03-04T13:03:14;22.55;;;7.63;;
29430;SDS011;16404;49.902;10.074;2023-03-04T13:12:15;17.15;;;5.75;;
29430;SDS011;16404;49.902;10.074;2023-03-04T13:20:45;12.07;;;5.47;;
29430;SDS011;16404;49.902;10.074;2023-03-04T13:23:30;14.18;;;5.97;;
29430;SDS011;16404;49.902;10.074;2023-03-04T13:32:09;18.98;;;6.30;;
29430;SDS011;16404;49.902;10.074;2023-03-04T13:34:54;15.20;;;5.85;;
29430;SDS011;16404;49.902;10.074;2023-03-04T13:37:41;12.20;;;5.30;;
29430;SDS011;16404;49.902;10.074;2023-03-04T13:40:40;11.98;;;4.88;;
29430;SDS011;16404;49.902;10.074;2023-03-04T13:43:46;16.80;;;6.45;;
29430;SDS011;16404;49.902;10.074;2023-03-04T13:46:41;13.00;;;5.47;;
29430;SDS011;16404;49.902;10.074;2023-03-04T13:49:26;14.43;;;5.50;;
29430;SDS011;16404;49.902;10.074;2023-03-04T13:58:25;12.52;;;5.25;;
29430;SDS011;16404;49.902;10.074;2023-03-04T14:01:29;16.38;;;4.82;;
29430;SDS011;16404;49.902;10.074;2023-03-04T14:04:16;13.37;;;4.80;;
29430;SDS011;16404;49.902;10.074;2023-03-04T14:07:16;8.55;;;3.65;;
29430;SDS011;16404;49.902;10.074;2023-03-04T14:12:57;9.45;;;4.22;;
29430;SDS011;16404;49.902;10.074;2023-03-04T14:15:47;11.88;;;4.45;;
29430;SDS011;16404;49.902;10.074;2023-03-04T14:18:40;10.15;;;3.33;;
29430;SDS011;16404;49.902;10.074;2023-03-04T14:21:25;9.77;;;3.72;;
29430;SDS011;16404;49.902;10.074;2023-03-04T14:24:14;12.27;;;4.10;;
29430;SDS011;16404;49.902;10.074;2023-03-04T14:27:09;12.23;;;4.00;;
29430;SDS011;16404;49.902;10.074;2023-03-04T14:32:43;13.73;;;4.90;;
29430;SDS011;16404;49.902;10.074;2023-03-04T14:35:28;11.73;;;4.72;;
29430;SDS011;16404;49.902;10.074;2023-03-04T14:38:17;10.82;;;3.72;;
29430;SDS011;16404;49.902;10.074;2023-03-04T14:41:14;10.25;;;4.53;;
29430;SDS011;16404;49.902;10.074;2023-03-04T14:44:12;10.40;;;4.20;;
29430;SDS011;16404;49.902;10.074;2023-03-04T14:47:20;11.60;;;4.18;;
29430;SDS011;16404;49.902;10.074;2023-03-04T14:50:11;9.35;;;4.22;;
29430;SDS011;16404;49.902;10.074;2023-03-04T14:58:52;15.27;;;5.97;;
29430;SDS011;16404;49.902;10.074;2023-03-04T15:01:38;8.55;;;4.35;;
29430;SDS011;16404;49.902;10.074;2023-03-04T15:04:23;14.23;;;4.75;;
29430;SDS011;16404;49.902;10.074;2023-03-04T15:07:12;15.43;;;4.85;;
29430;SDS011;16404;49.902;10.074;2023-03-04T15:10:05;11.82;;;5.22;;
29430;SDS011;16404;49.902;10.074;2023-03-04T15:12:56;15.82;;;5.75;;
29430;SDS011;16404;49.902;10.074;2023-03-04T15:15:45;14.32;;;6.10;;
29430;SDS011;16404;49.902;10.074;2023-03-04T15:18:31;14.57;;;5.28;;
29430;SDS011;16404;49.902;10.074;2023-03-04T15:24:04;15.88;;;6.03;;
29430;SDS011;16404;49.902;10.074;2023-03-04T15:26:51;12.40;;;5.80;;
29430;SDS011;16404;49.902;10.074;2023-03-04T15:29:35;14.68;;;7.10;;
29430;SDS011;16404;49.902;10.074;2023-03-04T15:32:21;16.02;;;7.25;;
29430;SDS011;16404;49.902;10.074;2023-03-04T15:35:08;19.38;;;7.32;;
29430;SDS011;16404;49.902;10.074;2023-03-04T15:37:55;17.92;;;7.50;;
29430;SDS011;16404;49.902;10.074;2023-03-04T15:43:28;25.33;;;9.20;;
29430;SDS011;16404;49.902;10.074;2023-03-04T15:46:13;23.52;;;8.43;;
29430;SDS011;16404;49.902;10.074;2023-03-04T15:48:57;30.05;;;13.15;;
29430;SDS011;16404;49.902;10.074;2023-03-04T15:51:42;22.92;;;9.13;;
29430;SDS011;16404;49.902;10.074;2023-03-04T15:54:27;29.65;;;10.10;;
29430;SDS011;16404;49.902;10.074;2023-03-04T15:57:45;25.92;;;11.98;;
29430;SDS011;16404;49.902;10.074;2023-03-04T16:00:22;23.63;;;9.95;;
29430;SDS011;16404;49.902;10.074;2023-03-04T16:03:11;27.13;;;10.82;;
29430;SDS011;16404;49.902;10.074;2023-03-04T16:05:59;34.15;;;12.15;;
29430;SDS011;16404;49.902;10.074;2023-03-04T16:08:44;36.67;;;12.98;;
29430;SDS011;16404;49.902;10.074;2023-03-04T16:11:31;32.05;;;12.52;;
29430;SDS011;16404;49.902;10.074;2023-03-04T16:14:19;31.98;;;12.73;;
29430;SDS011;16404;49.902;10.074;2023-03-04T16:17:04;28.45;;;11.88;;
29430;SDS011;16404;49.902;10.074;2023-03-04T16:19:50;24.05;;;12.38;;
29430;SDS011;16404;49.902;10.074;2023-03-04T16:22:35;29.25;;;13.07;;
29430;SDS011;16404;49.902;10.074;2023-03-04T16:25:20;32.58;;;13.25;;
29430;SDS011;16404;49.902;10.074;2023-03-04T16:28:05;42.25;;;15.52;;
29430;SDS011;16404;49.902;10.074;2023-03-04T16:30:53;31.38;;;13.02;;
29430;SDS011;16404;49.902;10.074;2023-03-04T16:33:37;28.50;;;13.18;;
29430;SDS011;16404;49.902;10.074;2023-03-04T16:36:23;27.65;;;12.63;;
29430;SDS011;16404;49.902;10.074;2023-03-04T16:39:13;30.27;;;13.55;;
29430;SDS011;16404;49.902;10.074;2023-03-04T16:42:03;35.08;;;14.32;;
29430;SDS011;16404;49.902;10.074;2023-03-04T16:44:53;31.17;;;14.32;;
29430;SDS011;16404;49.902;10.074;2023-03-04T16:47:38;39.67;;;18.48;;
29430;SDS011;16404;49.902;10.074;2023-03-04T16:50:23;44.22;;;17.90;;
29430;SDS011;16404;49.902;10.074;2023-03-04T16:56:16;36.22;;;15.88;;
29430;SDS011;16404;49.902;10.074;2023-03-04T16:59:01;36.35;;;17.65;;
29430;SDS011;16404;49.902;10.074;2023-03-04T17:01:46;82.43;;;33.70;;
29430;SDS011;16404;49.902;10.074;2023-03-04T17:07:15;33.20;;;16.77;;
29430;SDS011;16404;49.902;10.074;2023-03-04T17:10:00;37.45;;;16.48;;
29430;SDS011;16404;49.902;10.074;2023-03-04T17:12:45;44.13;;;17.17;;
29430;SDS011;16404;49.902;10.074;2023-03-04T17:15:29;36.50;;;15.40;;
29430;SDS011;16404;49.902;10.074;2023-03-04T17:18:14;34.22;;;16.58;;
29430;SDS011;16404;49.902;10.074;2023-03-04T17:21:02;42.88;;;19.02;;
29430;SDS011;16404;49.902;10.074;2023-03-04T17:23:49;49.35;;;21.60;;
29430;SDS011;16404;49.902;10.074;2023-03-04T17:26:34;43.88;;;19.63;;
29430;SDS011;16404;49.902;10.074;2023-03-04T17:29:18;41.88;;;16.98;;
29430;SDS011;16404;49.902;10.074;2023-03-04T17:32:03;37.45;;;16.70;;
29430;SDS011;16404;49.902;10.074;2023-03-04T17:34:47;38.92;;;16.75;;
29430;SDS011;16404;49.902;10.074;2023-03-04T17:37:32;33.40;;;16.38;;
29430;SDS011;16404;49.902;10.074;2023-03-04T17:40:18;40.20;;;17.52;;
29430;SDS011;16404;49.902;10.074;2023-03-04T17:43:02;36.65;;;16.63;;
29430;SDS011;16404;49.902;10.074;2023-03-04T17:46:01;36.17;;;14.95;;
29430;SDS011;16404;49.902;10.074;2023-03-04T17:51:39;33.78;;;14.73;;
29430;SDS011;16404;49.902;10.074;2023-03-04T17:54:24;40.55;;;15.27;;
29430;SDS011;16404;49.902;10.074;2023-03-04T17:57:10;30.30;;;14.07;;
29430;SDS011;16404;49.902;10.074;2023-03-04T17:59:55;29.77;;;14.98;;
29430;SDS011;16404;49.902;10.074;2023-03-04T18:05:24;37.65;;;14.27;;
29430;SDS011;16404;49.902;10.074;2023-03-04T18:08:09;42.90;;;15.88;;
29430;SDS011;16404;49.902;10.074;2023-03-04T18:10:54;34.63;;;16.70;;
29430;SDS011;16404;49.902;10.074;2023-03-04T18:13:39;47.00;;;16.58;;
29430;SDS011;16404;49.902;10.074;2023-03-04T18:16:24;36.85;;;16.25;;
29430;SDS011;16404;49.902;10.074;2023-03-04T18:19:11;38.13;;;15.25;;
29430;SDS011;16404;49.902;10.074;2023-03-04T18:21:56;38.25;;;14.93;;
29430;SDS011;16404;49.902;10.074;2023-03-04T18:24:41;39.55;;;16.10;;